createdAt,value
2018-11-07T00:02:03.790Z,4.20
2018-11-07T00:04:31.846Z,4.28
2018-11-07T00:06:59.865Z,4.25
2018-11-07T00:09:27.874Z,4.26
2018-11-07T00:11:55.895Z,4.24
2018-11-07T00:14:23.957Z,4.26
2018-11-07T00:16:51.967Z,4.14
2018-11-07T00:19:20.003Z,4.00
2018-11-07T00:21:48.038Z,4.06
2018-11-07T00:24:16.084Z,4.10
2018-11-07T00:26:44.172Z,4.21
2018-11-07T00:29:12.211Z,4.15
2018-11-07T00:31:40.307Z,4.09
2018-11-07T00:34:08.338Z,3.96
2018-11-07T00:36:36.481Z,3.96
2018-11-07T00:39:06.837Z,3.83
2018-11-07T00:41:34.874Z,3.83
2018-11-07T00:44:03.001Z,3.82
2018-11-07T00:46:31.012Z,3.91
2018-11-07T00:48:59.173Z,3.73
2018-11-07T00:51:27.271Z,3.59
2018-11-07T00:53:55.339Z,3.64
2018-11-07T00:56:23.353Z,3.56
2018-11-07T00:58:51.457Z,3.53
2018-11-07T01:01:19.429Z,3.51
2018-11-07T01:03:47.519Z,3.44
2018-11-07T01:06:15.615Z,3.46
2018-11-07T01:08:43.739Z,3.49
2018-11-07T01:11:11.783Z,3.48
2018-11-07T01:13:39.863Z,3.46
2018-11-07T01:16:08.095Z,3.47
2018-11-07T01:18:36.336Z,3.45
2018-11-07T01:21:04.664Z,3.44
2018-11-07T01:23:32.684Z,3.34
2018-11-07T01:26:00.710Z,3.21
2018-11-07T01:28:28.754Z,3.09
2018-11-07T01:30:56.786Z,2.96
2018-11-07T01:33:24.830Z,2.99
2018-11-07T01:35:53.022Z,3.08
2018-11-07T01:38:21.061Z,3.09
2018-11-07T01:40:49.132Z,2.98
2018-11-07T01:43:17.189Z,3.07
2018-11-07T01:45:45.265Z,3.05
2018-11-07T01:48:13.271Z,2.96
2018-11-07T01:50:41.329Z,3.04
2018-11-07T01:53:09.389Z,3.20
2018-11-07T01:55:37.449Z,3.17
2018-11-07T01:58:05.681Z,3.17
2018-11-07T02:00:33.745Z,3.09
2018-11-07T02:03:01.795Z,3.31
2018-11-07T02:05:29.949Z,3.09
2018-11-07T02:07:57.930Z,2.98
2018-11-07T02:10:25.954Z,2.91
2018-11-07T02:12:53.938Z,2.91
2018-11-07T02:15:22.085Z,2.78
2018-11-07T02:17:50.137Z,2.81
2018-11-07T02:20:18.209Z,2.88
2018-11-07T02:22:46.279Z,2.86
2018-11-07T02:25:14.317Z,2.95
2018-11-07T02:27:42.334Z,2.82
2018-11-07T02:30:12.776Z,2.90
2018-11-07T02:32:40.798Z,2.85
2018-11-07T02:35:08.872Z,2.77
2018-11-07T02:37:36.886Z,2.87
2018-11-07T02:40:05.380Z,2.90
2018-11-07T02:42:33.460Z,2.88
2018-11-07T02:45:01.448Z,2.89
2018-11-07T02:47:29.512Z,2.90
2018-11-07T02:49:57.532Z,2.85
2018-11-07T02:52:25.553Z,2.93
2018-11-07T02:54:53.546Z,2.69
2018-11-07T02:57:21.545Z,2.60
2018-11-07T02:59:49.553Z,2.48
2018-11-07T03:02:17.567Z,2.32
2018-11-07T03:04:45.510Z,2.20
2018-11-07T03:07:13.459Z,2.10
2018-11-07T03:09:41.325Z,2.00
2018-11-07T03:12:09.238Z,1.97
2018-11-07T03:14:37.164Z,2.03
2018-11-07T03:17:05.321Z,2.01
2018-11-07T03:19:33.210Z,1.97
2018-11-07T03:22:01.131Z,2.12
2018-11-07T03:24:29.021Z,2.19
2018-11-07T03:26:56.961Z,2.07
2018-11-07T03:29:24.913Z,2.23
2018-11-07T03:31:53.012Z,2.25
2018-11-07T03:34:21.018Z,2.26
2018-11-07T03:36:49.007Z,2.41
2018-11-07T03:39:17.012Z,2.27
2018-11-07T03:41:44.995Z,2.19
2018-11-07T03:44:13.071Z,2.27
2018-11-07T03:46:41.144Z,2.11
2018-11-07T03:49:09.328Z,2.21
2018-11-07T03:51:37.401Z,2.25
2018-11-07T03:54:05.321Z,2.14
2018-11-07T03:56:33.338Z,2.13
2018-11-07T03:59:01.375Z,2.22
2018-11-07T04:01:29.390Z,2.19
2018-11-07T04:03:57.424Z,2.19
2018-11-07T04:06:25.492Z,2.12
2018-11-07T04:08:53.452Z,1.99
2018-11-07T04:11:21.472Z,2.00
2018-11-07T04:13:49.481Z,2.05
2018-11-07T04:16:17.565Z,2.14
2018-11-07T04:18:45.567Z,2.25
2018-11-07T04:21:13.941Z,2.33
2018-11-07T04:23:46.393Z,2.38
2018-11-07T04:26:14.377Z,2.41
2018-11-07T04:28:42.395Z,2.56
2018-11-07T04:31:10.345Z,2.56
2018-11-07T04:33:38.349Z,2.60
2018-11-07T04:36:06.338Z,2.48
2018-11-07T04:38:34.382Z,2.57
2018-11-07T04:41:02.374Z,2.52
2018-11-07T04:43:30.330Z,2.44
2018-11-07T04:45:58.297Z,2.39
2018-11-07T04:48:26.251Z,2.39
2018-11-07T04:50:54.194Z,2.37
2018-11-07T04:53:22.481Z,2.40
2018-11-07T04:55:50.491Z,2.29
2018-11-07T04:58:18.449Z,2.37
2018-11-07T05:00:46.387Z,2.40
2018-11-07T05:03:14.381Z,2.26
2018-11-07T05:05:42.340Z,2.18
2018-11-07T05:08:10.249Z,2.22
2018-11-07T05:10:38.243Z,2.17
2018-11-07T05:13:06.205Z,2.12
2018-11-07T05:15:34.772Z,2.23
2018-11-07T05:18:02.808Z,2.25
2018-11-07T05:20:30.774Z,2.20
2018-11-07T05:22:58.949Z,2.31
2018-11-07T05:25:26.984Z,2.34
2018-11-07T05:27:55.004Z,2.33
2018-11-07T05:30:22.965Z,2.41
2018-11-07T05:32:51.049Z,2.45
2018-11-07T05:35:19.029Z,2.52
2018-11-07T05:37:47.089Z,2.62
2018-11-07T05:40:15.205Z,2.56
2018-11-07T05:42:43.551Z,2.68
2018-11-07T05:45:11.598Z,2.70
2018-11-07T05:47:40.163Z,2.78
2018-11-07T05:50:09.266Z,2.89
2018-11-07T05:52:37.788Z,2.85
2018-11-07T05:55:07.119Z,3.01
2018-11-07T05:57:35.229Z,3.17
2018-11-07T06:00:04.224Z,3.19
2018-11-07T06:02:32.342Z,3.24
2018-11-07T06:05:00.505Z,3.29
2018-11-07T06:07:28.721Z,3.29
2018-11-07T06:09:56.800Z,3.41
2018-11-07T06:12:24.901Z,3.45
2018-11-07T06:14:53.019Z,3.55
2018-11-07T06:17:21.090Z,3.42
2018-11-07T06:19:49.191Z,3.38
2018-11-07T06:22:17.297Z,3.44
2018-11-07T06:24:46.015Z,3.55
2018-11-07T06:27:14.164Z,3.58
2018-11-07T06:29:42.304Z,3.59
2018-11-07T06:32:10.383Z,3.71
2018-11-07T06:34:38.580Z,3.82
2018-11-07T06:37:06.805Z,3.94
2018-11-07T06:39:34.882Z,4.00
2018-11-07T06:42:02.918Z,3.99
2018-11-07T06:44:31.790Z,3.99
2018-11-07T06:47:00.113Z,4.09
2018-11-07T06:49:28.455Z,4.13
2018-11-07T06:51:56.484Z,4.15
2018-11-07T06:54:24.502Z,4.24
2018-11-07T06:56:52.550Z,4.31
2018-11-07T06:59:20.538Z,4.35
2018-11-07T07:01:48.544Z,4.29
2018-11-07T07:04:17.144Z,4.28
2018-11-07T07:06:45.151Z,4.36
2018-11-07T07:09:13.343Z,4.40
2018-11-07T07:11:41.618Z,4.49
2018-11-07T07:14:09.760Z,4.61
2018-11-07T07:16:38.327Z,4.78
2018-11-07T07:19:06.410Z,4.94
2018-11-07T07:21:34.757Z,5.05
2018-11-07T07:24:02.886Z,5.25
2018-11-07T07:26:31.062Z,5.25
2018-11-07T07:28:59.066Z,5.37
2018-11-07T07:31:27.014Z,5.34
2018-11-07T07:33:54.991Z,5.42
2018-11-07T07:36:23.097Z,5.51
2018-11-07T07:38:51.244Z,5.43
2018-11-07T07:41:19.682Z,5.39
2018-11-07T07:43:47.923Z,5.54
2018-11-07T07:46:16.032Z,5.76
2018-11-07T07:48:44.222Z,5.83
2018-11-07T07:51:12.271Z,5.89
2018-11-07T07:53:40.293Z,5.82
2018-11-07T07:56:08.500Z,5.72
2018-11-07T07:58:36.603Z,5.67
2018-11-07T08:01:04.744Z,5.48
2018-11-07T08:03:32.841Z,5.79
2018-11-07T08:06:00.985Z,5.86
2018-11-07T08:08:29.187Z,5.98
2018-11-07T08:10:57.771Z,5.99
2018-11-07T08:13:26.476Z,6.23
2018-11-07T08:15:55.101Z,6.64
2018-11-07T08:18:23.606Z,6.75
2018-11-07T08:20:52.243Z,6.77
2018-11-07T08:23:20.681Z,6.84
2018-11-07T08:25:49.028Z,7.03
2018-11-07T08:28:17.630Z,6.94
2018-11-07T08:30:46.370Z,6.79
2018-11-07T08:33:16.098Z,6.61
2018-11-07T08:35:44.586Z,6.90
2018-11-07T08:38:13.685Z,6.99
2018-11-07T08:40:42.192Z,7.10
2018-11-07T08:43:10.701Z,7.09
2018-11-07T08:45:39.320Z,7.20
2018-11-07T08:48:07.844Z,7.49
2018-11-07T08:50:36.716Z,7.51
2018-11-07T08:53:05.411Z,7.87
2018-11-07T08:55:34.411Z,8.16
2018-11-07T08:58:03.054Z,8.31
2018-11-07T09:00:31.842Z,8.54
2018-11-07T09:02:59.932Z,8.58
2018-11-07T09:05:28.047Z,8.49
2018-11-07T09:07:56.213Z,8.52
2018-11-07T09:10:24.693Z,8.72
2018-11-07T09:12:52.893Z,8.83
2018-11-07T09:15:21.990Z,8.89
2018-11-07T09:17:50.130Z,9.10
2018-11-07T09:20:19.571Z,9.25
2018-11-07T09:22:47.681Z,9.31
2018-11-07T09:25:16.233Z,9.66
2018-11-07T09:27:45.185Z,9.89
2018-11-07T09:30:15.807Z,10.09
2018-11-07T09:32:44.426Z,10.12
2018-11-07T09:35:13.151Z,10.30
2018-11-07T09:37:42.168Z,10.51
2018-11-07T09:40:12.790Z,10.60
2018-11-07T09:42:41.843Z,10.96
2018-11-07T09:45:11.919Z,10.91
2018-11-07T09:47:40.977Z,11.02
2018-11-07T09:50:10.140Z,11.09
2018-11-07T09:52:39.041Z,11.23
2018-11-07T09:55:08.968Z,11.35
2018-11-07T09:57:37.608Z,11.41
2018-11-07T10:00:10.258Z,11.70
2018-11-07T10:02:39.196Z,11.78
2018-11-07T10:05:08.678Z,11.90
2018-11-07T10:07:38.075Z,12.26
2018-11-07T10:10:08.570Z,12.30
2018-11-07T10:12:37.324Z,12.45
2018-11-07T10:15:06.783Z,12.63
2018-11-07T10:17:35.312Z,12.42
2018-11-07T10:20:05.312Z,12.36
2018-11-07T10:22:33.733Z,12.45
2018-11-07T10:25:02.177Z,12.63
2018-11-07T10:27:30.682Z,13.16
2018-11-07T10:29:59.672Z,13.43
2018-11-07T10:32:27.947Z,13.18
2018-11-07T10:34:57.137Z,13.27
2018-11-07T10:37:32.367Z,13.32
2018-11-07T10:39:54.722Z,13.63
2018-11-07T10:42:23.190Z,13.70
2018-11-07T10:44:51.609Z,13.89
2018-11-07T10:47:21.119Z,13.76
2018-11-07T10:49:49.915Z,13.71
2018-11-07T10:52:18.338Z,13.50
2018-11-07T10:54:47.416Z,13.55
2018-11-07T10:57:16.348Z,13.90
2018-11-07T10:59:44.715Z,14.28
2018-11-07T11:02:18.876Z,14.19
2018-11-07T11:04:47.316Z,14.10
2018-11-07T11:07:15.689Z,14.06
2018-11-07T11:09:44.111Z,14.09
2018-11-07T11:12:12.450Z,14.10
2018-11-07T11:14:40.875Z,14.32
2018-11-07T11:17:09.258Z,14.38
2018-11-07T11:19:37.640Z,14.27
2018-11-07T11:22:06.469Z,14.53
2018-11-07T11:24:34.843Z,14.63
2018-11-07T11:27:03.489Z,14.70
2018-11-07T11:29:31.944Z,14.63
2018-11-07T11:32:00.565Z,14.91
2018-11-07T11:34:29.803Z,14.62
2018-11-07T11:36:58.184Z,14.83
2018-11-07T11:39:26.875Z,15.05
2018-11-07T11:41:55.168Z,14.97
2018-11-07T11:44:23.443Z,15.09
2018-11-07T11:46:51.757Z,15.14
2018-11-07T11:49:20.637Z,15.33
2018-11-07T11:51:48.922Z,15.67
2018-11-07T11:54:17.233Z,15.84
2018-11-07T11:56:45.516Z,15.65
2018-11-07T11:59:14.045Z,15.70
2018-11-07T12:01:42.390Z,15.68
2018-11-07T12:04:10.701Z,15.67
2018-11-07T12:06:38.876Z,15.51
2018-11-07T12:09:08.535Z,15.69
2018-11-07T12:11:36.783Z,15.57
2018-11-07T12:14:05.069Z,15.54
2018-11-07T12:16:33.823Z,15.69
2018-11-07T12:19:02.139Z,15.80
2018-11-07T12:21:30.421Z,15.88
2018-11-07T12:23:58.743Z,16.02
2018-11-07T12:26:27.015Z,16.02
2018-11-07T12:28:55.307Z,16.00
2018-11-07T12:31:23.752Z,15.92
2018-11-07T12:33:52.016Z,15.88
2018-11-07T12:36:20.119Z,15.69
2018-11-07T12:38:48.404Z,15.65
2018-11-07T12:41:16.531Z,15.72
2018-11-07T12:43:44.661Z,15.77
2018-11-07T12:46:12.736Z,15.79
2018-11-07T12:48:40.886Z,15.75
2018-11-07T12:51:08.955Z,15.68
2018-11-07T12:53:37.173Z,15.70
2018-11-07T12:56:05.732Z,15.78
2018-11-07T12:58:33.781Z,15.65
2018-11-07T13:01:01.934Z,15.49
2018-11-07T13:03:29.999Z,15.26
2018-11-07T13:05:58.019Z,15.27
2018-11-07T13:08:26.112Z,15.32
2018-11-07T13:10:54.153Z,15.30
2018-11-07T13:13:22.074Z,15.23
2018-11-07T13:15:50.014Z,15.09
2018-11-07T13:18:17.972Z,15.02
2018-11-07T13:20:46.048Z,14.80
2018-11-07T13:23:14.044Z,14.70
2018-11-07T13:25:42.086Z,14.62
2018-11-07T13:28:10.167Z,14.45
2018-11-07T13:30:38.172Z,14.33
2018-11-07T13:33:06.211Z,14.13
2018-11-07T13:35:34.189Z,14.03
2018-11-07T13:38:02.243Z,13.96
2018-11-07T13:40:30.389Z,13.82
2018-11-07T13:42:58.455Z,13.74
2018-11-07T13:45:26.502Z,13.54
2018-11-07T13:47:54.886Z,13.41
2018-11-07T13:50:23.025Z,13.25
2018-11-07T13:52:51.152Z,13.10
2018-11-07T13:55:19.174Z,13.02
2018-11-07T13:57:47.241Z,12.94
2018-11-07T14:00:17.698Z,12.85
2018-11-07T14:02:46.280Z,12.72
2018-11-07T14:05:14.350Z,12.61
2018-11-07T14:07:42.366Z,12.47
2018-11-07T14:10:13.844Z,12.39
2018-11-07T14:12:41.932Z,12.29
2018-11-07T14:15:11.947Z,12.13
2018-11-07T14:17:40.029Z,12.02
2018-11-07T14:20:08.238Z,11.88
2018-11-07T14:22:36.286Z,11.83
2018-11-07T14:25:04.545Z,11.68
2018-11-07T14:27:32.744Z,11.51
2018-11-07T14:30:01.083Z,11.35
2018-11-07T14:32:29.727Z,11.25
2018-11-07T14:34:57.726Z,11.09
2018-11-07T14:37:25.704Z,10.97
2018-11-07T14:39:53.763Z,10.84
2018-11-07T14:42:21.801Z,10.74
2018-11-07T14:44:50.075Z,10.61
2018-11-07T14:47:18.182Z,10.44
2018-11-07T14:49:46.142Z,10.33
2018-11-07T14:52:14.125Z,10.32
2018-11-07T14:54:42.157Z,10.17
2018-11-07T14:57:10.183Z,10.10
2018-11-07T14:59:38.191Z,10.00
2018-11-07T15:02:06.633Z,10.01
2018-11-07T15:04:34.716Z,9.91
2018-11-07T15:07:02.781Z,9.72
2018-11-07T15:09:30.855Z,9.57
2018-11-07T15:11:59.067Z,9.48
2018-11-07T15:14:28.047Z,9.38
2018-11-07T15:16:56.169Z,9.22
2018-11-07T15:19:24.372Z,9.16
2018-11-07T15:21:52.522Z,9.29
2018-11-07T15:24:20.576Z,9.12
2018-11-07T15:26:48.588Z,8.90
2018-11-07T15:29:16.699Z,8.92
2018-11-07T15:31:44.860Z,8.94
2018-11-07T15:34:12.946Z,8.83
2018-11-07T15:36:41.017Z,8.81
2018-11-07T15:39:10.200Z,9.09
2018-11-07T15:41:38.496Z,9.70
2018-11-07T15:44:06.612Z,10.22
2018-11-07T15:46:35.358Z,10.34
2018-11-07T15:49:03.448Z,10.21
2018-11-07T15:51:37.458Z,10.45
2018-11-07T15:54:06.152Z,10.41
2018-11-07T15:56:34.602Z,10.60
2018-11-07T15:59:02.997Z,10.28
2018-11-07T16:01:31.300Z,10.43
2018-11-07T16:04:00.773Z,10.21
2018-11-07T16:06:29.077Z,10.15
2018-11-07T16:08:58.453Z,10.13
2018-11-07T16:11:27.914Z,10.07
2018-11-07T16:13:56.294Z,9.95
2018-11-07T16:16:24.822Z,9.88
2018-11-07T16:18:52.891Z,9.41
2018-11-07T16:21:21.088Z,9.34
2018-11-07T16:23:49.238Z,9.06
2018-11-07T16:26:17.325Z,9.29
2018-11-07T16:28:45.417Z,9.03
2018-11-07T16:31:13.481Z,8.81
2018-11-07T16:33:41.961Z,8.89
2018-11-07T16:36:10.118Z,9.07
2018-11-07T16:38:38.373Z,8.99
2018-11-07T16:41:06.928Z,9.06
2018-11-07T16:43:34.977Z,8.79
2018-11-07T16:46:03.082Z,9.15
2018-11-07T16:48:31.297Z,9.05
2018-11-07T16:50:59.495Z,8.92
2018-11-07T16:53:27.621Z,9.07
2018-11-07T16:55:55.673Z,9.50
2018-11-07T16:58:23.774Z,9.05
2018-11-07T17:00:51.868Z,8.86
2018-11-07T17:03:19.925Z,8.88
2018-11-07T17:05:47.936Z,8.97
2018-11-07T17:08:15.956Z,8.90
2018-11-07T17:10:43.961Z,8.84
2018-11-07T17:13:11.966Z,8.40
2018-11-07T17:15:39.929Z,8.33
2018-11-07T17:18:07.870Z,8.64
2018-11-07T17:20:35.885Z,8.96
2018-11-07T17:23:04.271Z,8.78
2018-11-07T17:25:32.356Z,8.84
2018-11-07T17:28:00.412Z,8.47
2018-11-07T17:30:28.528Z,8.20
2018-11-07T17:32:56.682Z,7.88
2018-11-07T17:35:24.756Z,7.80
2018-11-07T17:37:52.837Z,7.95
2018-11-07T17:40:22.273Z,7.88
2018-11-07T17:42:50.813Z,7.49
2018-11-07T17:45:19.828Z,7.38
2018-11-07T17:47:48.834Z,7.16
2018-11-07T17:50:17.775Z,7.35
2018-11-07T17:52:46.093Z,7.15
2018-11-07T17:55:16.071Z,6.98
2018-11-07T17:57:44.207Z,6.84
2018-11-07T18:00:20.905Z,6.74
2018-11-07T18:02:49.169Z,6.66
2018-11-07T18:05:17.537Z,6.60
2018-11-07T18:07:45.941Z,6.56
2018-11-07T18:10:15.869Z,6.37
2018-11-07T18:12:44.452Z,6.28
2018-11-07T18:15:12.961Z,6.17
2018-11-07T18:17:41.443Z,6.14
2018-11-07T18:20:11.188Z,6.10
2018-11-07T18:22:39.557Z,6.13
2018-11-07T18:25:09.473Z,6.09
2018-11-07T18:27:37.910Z,6.07
2018-11-07T18:30:07.514Z,6.12
2018-11-07T18:32:35.730Z,6.31
2018-11-07T18:35:03.976Z,6.11
2018-11-07T18:37:32.209Z,5.97
2018-11-07T18:40:00.394Z,6.00
2018-11-07T18:42:28.619Z,5.88
2018-11-07T18:44:56.808Z,5.79
2018-11-07T18:47:25.067Z,5.73
2018-11-07T18:49:53.365Z,5.66
2018-11-07T18:52:21.660Z,5.64
2018-11-07T18:54:50.596Z,5.46
2018-11-07T18:57:18.849Z,5.44
2018-11-07T18:59:47.109Z,5.49
2018-11-07T19:02:15.316Z,5.48
2018-11-07T19:04:43.641Z,5.33
2018-11-07T19:07:11.839Z,5.38
2018-11-07T19:09:40.315Z,5.37
2018-11-07T19:12:08.681Z,5.33
2018-11-07T19:14:37.034Z,5.36
2018-11-07T19:17:05.312Z,5.32
2018-11-07T19:19:33.462Z,5.44
2018-11-07T19:22:01.644Z,5.40
2018-11-07T19:24:30.036Z,5.30
2018-11-07T19:26:58.114Z,5.20
2018-11-07T19:29:26.223Z,5.50
2018-11-07T19:31:54.404Z,5.43
2018-11-07T19:34:22.612Z,5.41
2018-11-07T19:36:50.698Z,5.33
2018-11-07T19:39:18.851Z,5.25
2018-11-07T19:41:47.130Z,5.21
2018-11-07T19:44:15.234Z,5.15
2018-11-07T19:46:43.466Z,5.23
2018-11-07T19:49:11.644Z,5.21
2018-11-07T19:51:40.146Z,5.32
2018-11-07T19:54:08.331Z,5.22
2018-11-07T19:56:36.550Z,5.31
2018-11-07T19:59:04.910Z,5.21
2018-11-07T20:01:32.987Z,5.13
2018-11-07T20:04:01.167Z,5.12
2018-11-07T20:06:29.659Z,5.04
2018-11-07T20:08:58.080Z,5.12
2018-11-07T20:11:26.315Z,5.04
2018-11-07T20:13:54.505Z,4.97
2018-11-07T20:16:22.751Z,5.12
2018-11-07T20:18:50.904Z,5.24
2018-11-07T20:21:18.996Z,5.42
2018-11-07T20:23:47.099Z,5.56
2018-11-07T20:26:15.301Z,5.64
2018-11-07T20:28:43.714Z,5.31
2018-11-07T20:31:11.816Z,5.31
2018-11-07T20:33:39.982Z,5.25
2018-11-07T20:36:08.236Z,5.08
2018-11-07T20:38:36.447Z,5.08
2018-11-07T20:41:05.220Z,4.95
2018-11-07T20:43:33.352Z,4.98
2018-11-07T20:46:01.477Z,4.95
2018-11-07T20:48:29.620Z,4.77
2018-11-07T20:50:57.723Z,4.99
2018-11-07T20:53:25.994Z,4.95
2018-11-07T20:55:54.063Z,4.94
2018-11-07T20:58:22.139Z,4.97
2018-11-07T21:00:50.293Z,4.98
2018-11-07T21:03:18.344Z,4.95
2018-11-07T21:05:46.447Z,4.93
2018-11-07T21:08:14.595Z,5.03
2018-11-07T21:10:42.709Z,5.11
2018-11-07T21:13:11.057Z,5.04
2018-11-07T21:15:39.366Z,5.00
2018-11-07T21:18:07.459Z,4.96
2018-11-07T21:20:35.592Z,4.92
2018-11-07T21:23:03.734Z,5.00
2018-11-07T21:25:31.934Z,5.00
2018-11-07T21:28:00.097Z,4.89
2018-11-07T21:30:28.192Z,4.88
2018-11-07T21:32:56.369Z,4.94
2018-11-07T21:35:24.508Z,4.89
2018-11-07T21:37:52.601Z,4.97
2018-11-07T21:40:20.804Z,4.93
2018-11-07T21:42:48.884Z,4.91
2018-11-07T21:45:16.992Z,4.92
2018-11-07T21:47:45.040Z,4.85
2018-11-07T21:50:14.595Z,4.88
2018-11-07T21:52:42.944Z,4.87
2018-11-07T21:55:11.235Z,4.99
2018-11-07T21:57:39.680Z,5.07
2018-11-07T22:00:10.719Z,5.18
2018-11-07T22:02:38.981Z,5.31
2018-11-07T22:05:08.017Z,5.39
2018-11-07T22:07:36.454Z,5.56
2018-11-07T22:10:05.075Z,5.66
2018-11-07T22:12:33.151Z,5.64
2018-11-07T22:15:01.257Z,5.74
2018-11-07T22:17:29.375Z,5.75
2018-11-07T22:19:57.539Z,5.81
2018-11-07T22:22:25.597Z,5.88
2018-11-07T22:24:53.692Z,5.90
2018-11-07T22:27:22.184Z,5.91
2018-11-07T22:29:50.467Z,5.94
2018-11-07T22:32:18.585Z,5.97
2018-11-07T22:34:46.797Z,5.98
2018-11-07T22:37:14.990Z,5.98
2018-11-07T22:39:43.028Z,5.97
2018-11-07T22:42:11.116Z,6.00
2018-11-07T22:44:39.286Z,6.04
2018-11-07T22:47:07.398Z,6.03
2018-11-07T22:49:35.454Z,6.17
2018-11-07T22:52:03.577Z,6.03
2018-11-07T22:54:31.674Z,5.95
2018-11-07T22:56:59.886Z,5.97
2018-11-07T22:59:28.026Z,5.94
2018-11-07T23:01:56.164Z,6.13
2018-11-07T23:04:24.267Z,5.94
2018-11-07T23:06:52.477Z,5.99
2018-11-07T23:09:20.710Z,5.86
2018-11-07T23:11:48.947Z,5.87
2018-11-07T23:14:17.154Z,5.72
2018-11-07T23:16:45.420Z,5.70
2018-11-07T23:19:13.740Z,5.73
2018-11-07T23:21:41.922Z,5.70
2018-11-07T23:24:10.119Z,5.72
2018-11-07T23:26:38.378Z,5.90
2018-11-07T23:29:06.540Z,5.87
2018-11-07T23:31:34.813Z,5.85
2018-11-07T23:34:03.020Z,5.87
2018-11-07T23:36:31.469Z,5.78
2018-11-07T23:38:59.650Z,5.75
2018-11-07T23:41:27.874Z,5.82
2018-11-07T23:43:56.178Z,5.75
2018-11-07T23:46:24.354Z,5.69
2018-11-07T23:48:52.409Z,5.69
2018-11-07T23:51:20.557Z,5.85
2018-11-07T23:53:48.560Z,5.75
2018-11-07T23:56:16.664Z,5.57
2018-11-07T23:58:44.705Z,5.62
